Time;durP1;ratioP1;P1;durP2;ratioP2;P2;SDS_P1;SDS_P2;PMS_P1;PMS_P2;Temp;Humidity;BMP_temperature;BMP_pressure;BME280_temperature;BME280_humidity;BME280_pressure;Samples;Min_cycle;Max_cycle;Signal;HPM_P1;HPM_P2
2022/11/04 00:02:08;;;;;;;16.30;7.37;;;;;;;10.52;75.86;99519.57;1797333;79;20954;-40
2022/11/04 00:04:35;;;;;;;14.45;6.95;;;;;;;10.44;75.72;99515.14;1797434;79;20997;-40
2022/11/04 00:08:22;;;;;;;9.03;6.03;;;;;;;10.43;76.03;99520.34;1797458;79;22027;-40
2022/11/04 00:09:32;;;;;;;12.30;6.55;;;;;;;10.47;75.76;99515.78;1792870;79;21242;-41
2022/11/04 00:14:46;;;;;;;10.90;6.47;;;;;;;10.42;75.66;99513.34;1797456;79;20966;-41
2022/11/04 00:17:24;;;;;;;10.13;5.75;;;;;;;10.39;75.52;99514.06;1797390;78;21013;-40
2022/11/04 00:33:53;;;;;;;12.70;6.05;;;;;;;10.32;74.27;99509.83;1791585;80;21069;-40
2022/11/04 00:36:20;;;;;;;14.40;6.03;;;;;;;10.27;74.42;99509.53;1791544;80;21069;-40
2022/11/04 00:38:47;;;;;;;10.98;6.20;;;;;;;10.23;74.59;99513.31;1791598;80;20961;-40
2022/11/04 00:41:26;;;;;;;9.95;6.72;;;;;;;10.15;74.93;99514.27;1791421;80;20985;-41
2022/11/04 00:43:58;;;;;;;9.05;5.15;;;;;;;10.14;75.31;99509.98;1791408;80;21491;-40
2022/11/04 00:46:30;;;;;;;10.32;4.75;;;;;;;10.16;75.15;99503.11;1791666;80;21613;-40
2022/11/04 00:48:56;;;;;;;10.48;5.28;;;;;;;10.25;75.24;99505.63;1791528;79;21123;-40
2022/11/04 00:51:24;;;;;;;9.18;5.17;;;;;;;10.25;74.77;99504.27;1791348;79;21063;-40
2022/11/04 00:53:51;;;;;;;9.28;5.47;;;;;;;10.20;74.86;99507.25;1791498;80;21014;-40
2022/11/04 00:56:18;;;;;;;9.53;5.08;;;;;;;10.11;74.48;99499.86;1791437;79;21034;-40
2022/11/04 00:58:45;;;;;;;12.85;5.65;;;;;;;10.09;74.64;99502.12;1791570;79;21080;-40
2022/11/04 01:01:17;;;;;;;8.28;5.17;;;;;;;10.15;74.51;99496.66;1791268;79;23136;-41
2022/11/04 01:03:45;;;;;;;14.13;5.85;;;;;;;10.20;74.37;99499.13;1791539;79;21572;-40
2022/11/04 01:06:13;;;;;;;11.10;5.40;;;;;;;10.18;74.27;99491.91;1791663;80;20962;-40
2022/11/04 01:08:40;;;;;;;10.32;5.15;;;;;;;10.10;74.02;99490.94;1791305;80;21419;-40
2022/11/04 01:11:08;;;;;;;8.28;4.50;;;;;;;10.06;74.00;99496.85;1791304;80;20987;-40
2022/11/04 01:13:37;;;;;;;;;;;;;;;10.01;73.95;99489.78;1794419;79;20887;-40
2022/11/04 01:16:06;;;;;;;8.65;5.55;;;;;;;10.00;74.20;99490.92;1791382;79;20150;-40
2022/11/04 01:18:34;;;;;;;8.95;5.47;;;;;;;9.87;74.67;99491.37;1791537;80;21051;-40
2022/11/04 01:21:03;;;;;;;12.23;5.87;;;;;;;9.86;74.82;99494.65;1791587;79;21539;-40
2022/11/04 01:23:32;;;;;;;9.98;4.92;;;;;;;9.86;74.65;99490.59;1791706;79;21013;-40
2022/11/04 01:25:59;;;;;;;9.45;4.55;;;;;;;9.89;74.56;99493.15;1791493;80;21125;-40
2022/11/04 01:28:26;;;;;;;9.05;5.00;;;;;;;9.92;74.49;99494.58;1791371;79;20981;-40
2022/11/04 01:30:53;;;;;;;8.48;4.83;;;;;;;9.95;74.45;99488.48;1791503;80;20954;-40
2022/11/04 01:33:20;;;;;;;10.20;4.97;;;;;;;9.96;74.42;99486.55;1798652;79;21021;-40
2022/11/04 01:35:47;;;;;;;8.25;4.97;;;;;;;10.00;74.33;99482.00;1799917;79;21064;-40
2022/11/04 01:38:15;;;;;;;13.05;5.45;;;;;;;10.05;74.13;99480.38;1799812;79;21101;-40
2022/11/04 01:40:43;;;;;;;8.55;4.90;;;;;;;10.11;73.99;99481.69;1799837;78;20961;-40
2022/11/04 01:43:19;;;;;;;7.35;4.40;;;;;;;10.21;73.61;99487.16;1799786;79;21001;-40
2022/11/04 01:45:57;;;;;;;9.08;5.15;;;;;;;10.25;73.31;99486.66;1799671;79;21614;-40
2022/11/04 01:48:28;;;;;;;9.48;5.25;;;;;;;10.23;73.43;99483.50;1799882;79;21535;-40
2022/11/04 01:50:55;;;;;;;11.60;5.20;;;;;;;10.22;73.36;99492.20;1799641;79;21016;-40
2022/11/04 01:53:32;;;;;;;8.65;5.17;;;;;;;10.18;72.83;99485.92;1799759;78;20957;-40
2022/11/04 01:56:03;;;;;;;7.42;3.85;;;;;;;10.13;72.87;99479.39;1799803;78;21574;-40
2022/11/04 01:58:31;;;;;;;8.45;4.53;;;;;;;10.12;72.81;99481.88;1800122;79;20953;-40
2022/11/04 02:00:58;;;;;;;9.45;4.60;;;;;;;10.10;72.83;99473.34;1799969;78;21081;-41
2022/11/04 02:03:34;;;;;;;8.30;5.28;;;;;;;10.06;72.81;99461.64;1799813;78;21117;-40
2022/11/04 02:06:00;;;;;;;7.10;4.55;;;;;;;10.02;72.26;99462.89;1768929;79;21039;-40
2022/11/04 02:08:27;;;;;;;8.23;4.53;;;;;;;9.93;72.51;99460.95;1799955;78;20954;-40
2022/11/04 02:11:01;;;;;;;9.65;4.58;;;;;;;9.94;72.92;99463.09;1799814;79;21064;-40
2022/11/04 02:13:33;;;;;;;8.50;4.50;;;;;;;9.95;72.84;99462.75;1799961;78;21514;-40
2022/11/04 02:16:21;;;;;;;7.20;4.40;;;;;;;9.97;72.47;99459.70;1799757;79;21891;-40
2022/11/04 02:19:16;;;;;;;8.73;5.50;;;;;;;9.92;72.30;99466.73;1794852;79;20949;-40
2022/11/04 02:21:57;;;;;;;10.38;5.35;;;;;;;9.85;72.52;99468.70;1799972;78;21862;-40
2022/11/04 02:24:51;;;;;;;7.45;4.50;;;;;;;9.80;73.01;99477.66;1765634;79;21019;-40
2022/11/04 02:27:26;;;;;;;10.08;4.95;;;;;;;9.81;73.24;99476.52;1799390;79;21499;-40
2022/11/04 02:30:10;;;;;;;9.30;5.00;;;;;;;9.81;73.25;99472.47;1800111;79;21237;-40
2022/11/04 02:32:56;;;;;;;7.70;4.70;;;;;;;9.76;73.50;99470.81;1790427;79;20975;-40
2022/11/04 02:35:37;;;;;;;9.35;5.00;;;;;;;9.70;73.45;99468.71;1800094;79;21491;-40
2022/11/04 02:38:31;;;;;;;8.98;4.35;;;;;;;9.66;73.69;99476.75;1781900;79;21025;-40
2022/11/04 02:41:30;;;;;;;7.60;4.67;;;;;;;9.63;73.89;99480.17;1800089;79;21112;-40
2022/11/04 02:44:11;;;;;;;9.15;4.87;;;;;;;9.71;74.08;99480.55;1800215;78;21134;-40
2022/11/04 02:46:56;;;;;;;7.72;5.00;;;;;;;9.74;73.96;99473.07;1799885;79;20906;-40
2022/11/04 02:49:48;;;;;;;11.93;5.62;;;;;;;9.78;74.16;99469.11;1800086;78;21476;-40
2022/11/04 02:52:28;;;;;;;9.23;5.30;;;;;;;9.82;73.99;99472.69;1799931;79;21005;-40
2022/11/04 02:55:03;;;;;;;12.88;5.10;;;;;;;9.86;73.98;99464.08;1800105;79;20989;-41
2022/11/04 02:57:33;;;;;;;10.88;4.87;;;;;;;9.98;73.93;99463.95;1800207;78;21048;-40
2022/11/04 03:00:09;;;;;;;11.30;5.08;;;;;;;10.05;73.63;99466.83;1799925;79;21433;-40
2022/11/04 03:02:43;;;;;;;7.00;5.05;;;;;;;10.10;73.53;99465.20;1800031;79;20969;-40
2022/11/04 03:05:13;;;;;;;7.97;5.00;;;;;;;10.09;73.02;99469.61;1793991;79;20969;-40
2022/11/04 03:07:42;;;;;;;8.30;5.10;;;;;;;9.96;73.20;99464.33;1800289;78;21018;-40
2022/11/04 03:10:23;;;;;;;9.45;4.85;;;;;;;9.91;73.38;99465.16;1769605;79;21206;-40
2022/11/04 03:13:04;;;;;;;12.23;5.58;;;;;;;9.93;73.59;99458.24;1787169;79;20993;-41
2022/11/04 03:15:33;;;;;;;9.50;5.83;;;;;;;9.96;73.57;99462.18;1799205;79;21191;-40
2022/11/04 03:18:21;;;;;;;8.88;5.58;;;;;;;9.92;73.67;99467.50;1800307;79;21049;-41
2022/11/04 03:20:48;;;;;;;7.85;4.83;;;;;;;9.86;73.66;99452.68;1800060;79;21037;-41
2022/11/04 03:23:15;;;;;;;9.35;5.20;;;;;;;9.77;73.71;99456.14;1799849;79;21142;-41
2022/11/04 03:25:45;;;;;;;8.70;5.25;;;;;;;9.73;73.85;99455.25;1799852;78;20957;-41
2022/11/04 03:28:25;;;;;;;;;;;;;;;9.77;74.00;99455.36;1802672;78;21472;-41
2022/11/04 03:30:55;;;;;;;10.13;5.28;;;;;;;9.74;74.18;99453.33;1800116;79;26538;-41
2022/11/04 03:33:48;;;;;;;11.18;5.00;;;;;;;9.62;74.62;99452.87;1799858;79;20958;-41
2022/11/04 03:36:17;;;;;;;10.43;5.22;;;;;;;9.60;74.45;99452.44;1799823;79;21097;-41
2022/11/04 03:38:45;;;;;;;7.00;4.72;;;;;;;9.63;74.39;99453.10;1781996;78;22146;-41
2022/11/04 03:41:26;;;;;;;8.60;5.25;;;;;;;9.64;74.27;99451.16;1778484;80;21024;-41
2022/11/04 03:43:53;;;;;;;11.80;6.35;;;;;;;9.59;74.14;99449.50;1775517;80;21087;-41
2022/11/04 03:46:21;;;;;;;11.25;6.10;;;;;;;9.49;74.24;99449.46;1778421;79;21037;-41
2022/11/04 03:48:49;;;;;;;8.70;5.10;;;;;;;9.43;74.49;99454.15;1748412;80;21217;-41
2022/11/04 03:51:16;;;;;;;8.18;5.00;;;;;;;9.39;74.86;99460.05;1749025;80;20996;-41
2022/11/04 03:53:43;;;;;;;12.53;5.97;;;;;;;9.45;74.91;99459.42;1778472;80;21025;-41
2022/11/04 03:56:31;;;;;;;11.63;5.33;;;;;;;9.54;74.99;99456.53;1778397;80;21067;-41
2022/11/04 03:59:15;;;;;;;10.35;5.55;;;;;;;9.55;74.92;99452.13;1778024;80;21020;-41
2022/11/04 04:01:53;;;;;;;9.85;6.20;;;;;;;9.54;75.14;99445.70;1778536;80;21130;-41
2022/11/04 04:04:36;;;;;;;9.93;6.00;;;;;;;9.58;75.14;99454.72;1778384;80;20924;-41
2022/11/04 04:07:13;;;;;;;12.80;5.83;;;;;;;9.61;74.95;99451.30;1778630;80;20980;-41
2022/11/04 04:09:45;;;;;;;16.02;6.17;;;;;;;9.66;74.65;99446.98;1764430;80;21553;-41
2022/11/04 04:12:37;;;;;;;9.25;5.62;;;;;;;9.67;74.60;99440.44;1778312;79;20997;-41
2022/11/04 04:15:18;;;;;;;11.80;6.50;;;;;;;9.61;74.61;99440.48;1711607;83;21250;-41
2022/11/04 04:18:02;;;;;;;10.18;5.90;;;;;;;9.57;74.93;99436.91;1705673;83;21546;-41
2022/11/04 04:20:31;;;;;;;11.05;5.45;;;;;;;9.60;74.79;99434.84;1751566;80;21573;-41
2022/11/04 04:27:29;;;;;;;9.50;6.00;;;;;;;9.68;74.63;99442.02;1778753;80;20972;-41
2022/11/04 04:28:23;;;;;;;9.63;5.97;;;;;;;9.76;74.28;99449.16;1752727;80;21147;-41
2022/11/04 04:30:50;;;;;;;11.45;6.33;;;;;;;9.80;74.10;99445.17;1748223;80;21064;-41
2022/11/04 04:33:18;;;;;;;12.25;6.08;;;;;;;9.84;73.87;99447.38;1787166;79;21069;-41
2022/11/04 04:35:54;;;;;;;11.30;6.20;;;;;;;9.87;73.25;99444.78;1797761;79;21568;-41
2022/11/04 04:47:18;;;;;;;8.65;5.90;;;;;;;9.91;72.96;99461.09;1797829;79;21026;-41
2022/11/04 04:49:56;;;;;;;11.08;6.17;;;;;;;9.85;73.06;99471.41;1797664;79;20987;-41
2022/11/04 04:52:26;;;;;;;9.28;5.20;;;;;;;9.84;73.12;99477.95;1797421;79;21090;-41
2022/11/04 04:54:52;;;;;;;11.28;5.80;;;;;;;9.91;73.04;99482.77;1798200;79;21142;-41
2022/11/04 04:57:19;;;;;;;8.78;5.50;;;;;;;9.88;72.31;99484.23;1797876;79;21516;-41
2022/11/04 04:59:46;;;;;;;11.05;6.22;;;;;;;9.78;72.57;99490.18;1791742;79;21470;-41
2022/11/04 05:02:14;;;;;;;8.80;6.00;;;;;;;9.69;73.01;99481.45;1797668;79;21668;-41
2022/11/04 05:04:41;;;;;;;13.58;6.25;;;;;;;9.67;73.28;99490.52;1797728;79;21489;-41
2022/11/04 05:07:08;;;;;;;11.00;6.12;;;;;;;9.71;73.35;99488.67;1797879;79;23179;-41
2022/11/04 05:09:36;;;;;;;8.08;6.00;;;;;;;9.73;73.24;99490.45;1797813;79;21043;-41
2022/11/04 05:12:03;;;;;;;12.68;6.17;;;;;;;9.74;73.25;99486.61;1797917;79;21090;-41
2022/11/04 05:14:30;;;;;;;9.05;6.40;;;;;;;9.71;73.39;99487.31;1797746;79;20935;-41
2022/11/04 05:16:57;;;;;;;11.15;6.40;;;;;;;9.69;73.72;99482.81;1797927;79;20944;-41
2022/11/04 05:19:24;;;;;;;10.20;6.03;;;;;;;9.76;73.72;99484.91;1797842;79;21131;-41
2022/11/04 05:21:51;;;;;;;10.70;6.12;;;;;;;9.77;73.39;99487.28;1797851;79;21091;-41
2022/11/04 05:24:19;;;;;;;10.32;5.95;;;;;;;9.81;73.35;99486.00;1797826;79;20975;-41
2022/11/04 05:26:46;;;;;;;10.53;5.87;;;;;;;9.83;73.34;99489.13;1797856;79;21098;-41
2022/11/04 05:29:13;;;;;;;10.68;5.72;;;;;;;9.78;73.46;99492.89;1797836;79;20971;-41
2022/11/04 05:31:39;;;;;;;9.78;6.15;;;;;;;9.81;73.39;99498.98;1797849;79;21240;-41
2022/11/04 05:34:10;;;;;;;11.45;6.00;;;;;;;9.81;73.26;99500.89;1781216;79;20980;-41
2022/11/04 05:36:38;;;;;;;10.48;5.58;;;;;;;9.83;73.40;99498.04;1772573;81;20980;-41
2022/11/04 05:39:05;;;;;;;10.40;5.60;;;;;;;9.95;73.18;99492.54;1772481;80;21582;-41
2022/11/04 05:41:33;;;;;;;10.43;6.17;;;;;;;10.06;72.61;99496.06;1772628;81;21560;-41
2022/11/04 05:44:02;;;;;;;11.55;5.97;;;;;;;10.10;72.59;99494.22;1772614;81;21093;-41
2022/11/04 05:46:29;;;;;;;8.08;5.83;;;;;;;10.14;72.43;99486.95;1772449;80;21537;-41
2022/11/04 05:48:56;;;;;;;9.28;6.03;;;;;;;10.10;71.70;99495.57;1772735;81;20921;-41
2022/11/04 05:51:25;;;;;;;10.75;5.62;;;;;;;10.01;71.66;99493.84;1772578;81;21060;-41
2022/11/04 05:53:53;;;;;;;8.93;5.33;;;;;;;10.06;71.72;99490.08;1772751;81;21538;-41
2022/11/04 05:56:20;;;;;;;8.48;5.33;;;;;;;10.08;71.49;99496.48;1772610;81;21184;-41
2022/11/04 05:58:47;;;;;;;8.78;5.62;;;;;;;10.08;71.62;99496.48;1772748;81;20984;-41
2022/11/04 06:01:26;;;;;;;10.48;5.90;;;;;;;10.06;71.42;99500.13;1772764;81;21036;-41
2022/11/04 06:03:55;;;;;;;10.98;5.75;;;;;;;10.06;71.44;99498.77;1772658;81;20898;-41
2022/11/04 06:06:23;;;;;;;10.03;5.53;;;;;;;10.03;71.54;99499.69;1772733;81;20992;-41
2022/11/04 06:08:52;;;;;;;6.67;5.33;;;;;;;10.09;71.60;99499.41;1772895;81;21547;-41
2022/11/04 06:11:19;;;;;;;10.38;5.55;;;;;;;10.15;71.42;99494.73;1772666;81;21001;-41
2022/11/04 06:13:46;;;;;;;11.75;5.50;;;;;;;10.17;71.28;99504.66;1772719;81;21014;-41
2022/11/04 06:16:14;;;;;;;10.55;6.30;;;;;;;10.10;71.35;99503.13;1772722;80;21032;-41
2022/11/04 06:18:42;;;;;;;8.80;5.90;;;;;;;10.06;71.60;99502.84;1772993;81;21494;-41
2022/11/04 06:21:20;;;;;;;8.23;5.83;;;;;;;10.09;71.81;99500.77;1772735;81;21373;-41
2022/11/04 06:23:47;;;;;;;10.28;5.50;;;;;;;10.12;71.26;99496.78;1772873;81;21044;-41
2022/11/04 06:26:14;;;;;;;9.75;6.95;;;;;;;10.12;71.10;99496.02;1772839;81;21534;-41
2022/11/04 06:28:42;;;;;;;13.43;6.80;;;;;;;10.18;71.52;99494.61;1772724;81;21534;-41
2022/11/04 06:31:11;;;;;;;9.68;6.40;;;;;;;10.24;71.46;99492.64;1772704;81;21033;-41
2022/11/04 06:33:38;;;;;;;;;;;;;;;10.30;71.34;99491.23;1783507;79;21087;-41
2022/11/04 06:36:07;;;;;;;11.15;6.65;;;;;;;10.38;71.34;99485.39;1797840;79;21472;-41
2022/11/04 06:38:36;;;;;;;11.43;6.40;;;;;;;10.35;71.22;99484.75;1798184;79;21047;-41
2022/11/04 06:41:05;;;;;;;11.03;6.03;;;;;;;10.45;70.56;99490.97;1798104;79;21508;-41
2022/11/04 06:43:33;;;;;;;8.80;5.87;;;;;;;10.51;70.48;99493.59;1798116;79;21015;-41
2022/11/04 06:46:01;;;;;;;8.65;5.85;;;;;;;10.55;70.40;99493.13;1797955;79;21106;-41
2022/11/04 06:48:30;;;;;;;7.58;5.40;;;;;;;10.61;70.70;99494.39;1797993;79;21094;-41
2022/11/04 06:50:58;;;;;;;9.00;5.87;;;;;;;10.71;70.56;99493.83;1798137;79;21011;-41
2022/11/04 06:53:26;;;;;;;10.18;6.40;;;;;;;10.79;70.49;99491.50;1797887;79;20983;-41
2022/11/04 06:55:53;;;;;;;11.95;6.12;;;;;;;10.81;70.25;99500.05;1798414;79;21061;-41
2022/11/04 06:58:19;;;;;;;10.75;5.85;;;;;;;10.88;69.93;99503.48;1792272;80;21287;-41
2022/11/04 07:00:52;;;;;;;13.58;7.03;;;;;;;10.96;69.76;99509.81;1792203;80;21512;-41
2022/11/04 07:03:19;;;;;;;10.50;6.17;;;;;;;10.93;68.48;99505.11;1792409;80;21056;-41
2022/11/04 07:05:46;;;;;;;10.80;6.17;;;;;;;10.81;68.86;99514.95;1792395;80;21628;-41
2022/11/04 07:08:12;;;;;;;9.58;6.03;;;;;;;10.77;69.36;99510.03;1792520;80;21533;-41
2022/11/04 07:10:39;;;;;;;9.00;6.15;;;;;;;10.78;69.63;99514.33;1792300;80;23154;-41
2022/11/04 07:13:06;;;;;;;13.83;6.12;;;;;;;10.83;69.79;99518.11;1792206;80;21620;-41
2022/11/04 07:15:33;;;;;;;10.90;6.37;;;;;;;10.88;69.76;99511.61;1792200;80;21494;-41
2022/11/04 07:18:00;;;;;;;13.35;6.75;;;;;;;10.98;69.54;99515.67;1779961;79;21021;-41
2022/11/04 07:20:27;;;;;;;10.20;6.67;;;;;;;11.04;69.66;99514.22;1767602;81;21632;-41
2022/11/04 07:22:54;;;;;;;9.08;6.87;;;;;;;11.07;69.11;99509.45;1766632;80;21233;-41
2022/11/04 07:25:21;;;;;;;11.03;7.40;;;;;;;10.98;68.37;99511.61;1760280;81;21525;-41
2022/11/04 07:27:48;;;;;;;13.38;7.53;;;;;;;10.86;68.84;99504.39;1768224;80;20936;-41
2022/11/04 07:30:15;;;;;;;12.80;6.75;;;;;;;10.84;69.31;99497.20;1774810;80;21099;-41
2022/11/04 07:32:42;;;;;;;9.83;6.28;;;;;;;10.93;69.36;99501.05;1772417;80;21004;-41
2022/11/04 07:35:09;;;;;;;11.70;5.95;;;;;;;11.03;69.49;99505.89;1752405;80;21205;-41
2022/11/04 07:37:38;;;;;;;8.65;6.30;;;;;;;11.11;69.45;99507.02;1790042;79;21023;-41
2022/11/04 07:40:06;;;;;;;12.60;6.80;;;;;;;11.17;69.40;99501.52;1794188;79;20990;-41
2022/11/04 07:42:33;;;;;;;11.40;7.42;;;;;;;11.24;69.08;99504.92;1808318;79;21002;-41
2022/11/04 07:45:03;;;;;;;16.12;8.55;;;;;;;11.30;68.96;99506.20;1796888;79;21059;-41
2022/11/04 07:47:30;;;;;;;13.93;8.20;;;;;;;11.32;68.57;99510.70;1790017;80;21848;-41
2022/11/04 07:49:57;;;;;;;8.68;6.62;;;;;;;11.31;68.39;99507.78;1790184;80;20969;-41
2022/11/04 07:52:24;;;;;;;10.20;6.87;;;;;;;11.34;67.85;99512.47;1789879;79;20970;-41
2022/11/04 07:54:51;;;;;;;14.28;6.90;;;;;;;11.33;67.48;99512.25;1808460;79;21552;-41
2022/11/04 07:57:17;;;;;;;7.60;6.35;;;;;;;11.30;67.74;99505.63;1796852;79;21008;-41
2022/11/04 07:59:45;;;;;;;9.65;6.55;;;;;;;11.26;67.58;99506.72;1790227;80;22220;-41
2022/11/04 08:02:12;;;;;;;10.82;6.70;;;;;;;11.16;67.31;99516.80;1790089;79;21070;-41
2022/11/04 08:04:39;;;;;;;12.03;7.17;;;;;;;11.06;67.75;99530.94;1790155;80;21012;-41
2022/11/04 08:07:08;;;;;;;10.53;6.17;;;;;;;10.99;67.85;99532.17;1784530;79;20988;-41
2022/11/04 08:09:36;;;;;;;9.30;6.40;;;;;;;10.92;67.99;99526.02;1790121;80;21021;-41
2022/11/04 08:12:05;;;;;;;11.38;6.45;;;;;;;10.87;68.37;99527.09;1790065;80;23133;-41
2022/11/04 08:14:32;;;;;;;10.38;6.12;;;;;;;10.81;68.35;99520.37;1790059;80;20964;-41
2022/11/04 08:17:00;;;;;;;10.40;6.47;;;;;;;10.74;68.79;99516.19;1790180;80;21060;-41
2022/11/04 08:19:28;;;;;;;11.22;6.72;;;;;;;10.70;69.01;99515.30;1790064;80;21588;-41
2022/11/04 08:21:55;;;;;;;10.60;7.70;;;;;;;10.68;69.26;99510.82;1790096;80;21258;-41
2022/11/04 08:24:22;;;;;;;10.98;7.60;;;;;;;10.65;69.15;99506.69;1790099;79;21191;-41
2022/11/04 08:26:49;;;;;;;11.95;6.53;;;;;;;10.56;69.22;99514.22;1790204;80;22178;-41
2022/11/04 08:29:16;;;;;;;12.50;6.70;;;;;;;10.54;69.42;99513.80;1790009;79;21517;-41
2022/11/04 08:31:43;;;;;;;12.85;7.42;;;;;;;10.55;69.68;99509.39;1790186;79;21024;-41
2022/11/04 08:34:10;;;;;;;12.68;8.10;;;;;;;10.52;69.91;99499.23;1783640;80;20901;-41
2022/11/04 08:36:39;;;;;;;12.75;7.90;;;;;;;10.50;70.20;99505.61;1783655;80;23169;-41
2022/11/04 08:39:07;;;;;;;9.95;7.60;;;;;;;10.49;70.52;99497.25;1770271;81;21005;-41
2022/11/04 08:41:36;;;;;;;8.50;6.10;;;;;;;10.54;70.52;99503.75;1784156;80;21001;-41
2022/11/04 08:44:04;;;;;;;12.13;6.77;;;;;;;10.61;70.14;99509.30;1772811;81;21040;-41
2022/11/04 08:46:36;;;;;;;11.50;7.10;;;;;;;10.65;70.08;99503.38;1780187;80;21064;-41
2022/11/04 08:49:03;;;;;;;9.98;6.97;;;;;;;10.67;70.20;99494.90;1780608;79;21206;-41
2022/11/04 08:51:32;;;;;;;10.85;7.12;;;;;;;10.65;70.50;99510.16;1744916;81;21496;-41
2022/11/04 08:53:59;;;;;;;10.93;7.37;;;;;;;10.64;70.45;99507.25;1774971;80;21023;-41
2022/11/04 08:56:32;;;;;;;9.55;6.87;;;;;;;10.65;70.27;99507.45;1775045;80;20998;-41
2022/11/04 08:59:00;;;;;;;10.13;6.70;;;;;;;10.65;70.18;99510.16;1775157;80;20949;-41
2022/11/04 09:01:28;;;;;;;16.07;12.25;;;;;;;10.69;69.86;99498.84;1775240;80;21510;-41
2022/11/04 09:03:56;;;;;;;9.63;6.42;;;;;;;10.73;69.68;99501.62;1775178;80;20960;-41
2022/11/04 09:06:26;;;;;;;12.68;8.23;;;;;;;10.67;69.80;99499.75;1775163;80;21545;-41
2022/11/04 09:08:56;;;;;;;11.70;6.17;;;;;;;10.64;69.96;99504.55;1775403;80;21644;-41
2022/11/04 09:11:22;;;;;;;12.07;6.67;;;;;;;10.58;70.16;99497.04;1775156;79;21099;-41
2022/11/04 09:13:52;;;;;;;10.18;6.45;;;;;;;10.55;70.08;99494.48;1775032;80;20961;-42
2022/11/04 09:16:19;;;;;;;8.50;5.92;;;;;;;10.58;70.11;99497.04;1775071;79;21491;-42
2022/11/04 09:18:47;;;;;;;9.78;5.92;;;;;;;10.62;69.88;99501.96;1775031;79;20980;-41
2022/11/04 09:21:13;;;;;;;8.83;5.83;;;;;;;10.60;69.90;99498.23;1774957;80;21011;-41
2022/11/04 09:23:41;;;;;;;15.43;6.12;;;;;;;10.58;69.85;99503.25;1775105;80;21001;-42
2022/11/04 09:26:13;;;;;;;10.03;5.83;;;;;;;10.56;69.91;99502.81;1775122;80;21122;-42
2022/11/04 09:28:40;;;;;;;10.00;5.05;;;;;;;10.56;70.08;99498.73;1775230;80;21016;-41
2022/11/04 09:31:16;;;;;;;9.43;5.62;;;;;;;10.57;69.75;99494.89;1774981;80;21028;-41
2022/11/04 09:33:43;;;;;;;9.80;6.20;;;;;;;10.63;70.27;99493.48;1775084;79;21569;-42
2022/11/04 09:36:11;;;;;;;12.98;7.15;;;;;;;10.65;70.36;99493.89;1775070;80;21027;-42
2022/11/04 09:39:36;;;;;;;10.23;7.03;;;;;;;10.66;70.58;99495.47;1871220;75;22171;-41
2022/11/04 09:42:35;;;;;;;10.55;6.60;;;;;;;10.65;70.45;99495.84;1829473;77;20951;-41
2022/11/04 09:45:10;;;;;;;8.63;6.70;;;;;;;10.62;70.49;99487.84;1839210;76;23133;-41
2022/11/04 09:47:40;;;;;;;8.88;5.65;;;;;;;10.56;70.20;99487.89;1837557;76;20968;-41
2022/11/04 09:50:10;;;;;;;10.40;5.97;;;;;;;10.50;70.51;99484.48;1812163;76;21003;-41
2022/11/04 09:52:43;;;;;;;9.30;6.17;;;;;;;10.52;70.31;99485.69;1804358;78;21487;-41
2022/11/04 09:55:20;;;;;;;8.85;5.87;;;;;;;10.53;70.06;99483.77;1819227;77;20960;-41
2022/11/04 09:57:53;;;;;;;9.60;6.20;;;;;;;10.48;70.18;99491.61;1810930;76;22211;-41
2022/11/04 10:00:20;;;;;;;11.00;6.03;;;;;;;10.48;70.52;99484.05;1818628;77;20988;-41
2022/11/04 10:03:12;;;;;;;9.10;5.70;;;;;;;10.46;70.41;99487.10;1790190;79;21064;-41
2022/11/04 10:05:56;;;;;;;7.55;5.12;;;;;;;10.44;70.35;99486.12;1786704;79;21030;-41
2022/11/04 10:09:05;;;;;;;8.30;5.92;;;;;;;10.50;70.32;99482.56;1759810;81;21553;-41
2022/11/04 10:11:44;;;;;;;9.80;5.72;;;;;;;10.55;69.97;99478.78;1765667;80;21274;-41
2022/11/04 10:14:32;;;;;;;13.95;7.65;;;;;;;10.50;69.18;99475.79;1759603;81;21518;-41
2022/11/04 10:17:39;;;;;;;10.03;6.22;;;;;;;10.45;69.10;99480.92;1773239;79;20924;-41
2022/11/04 10:20:55;;;;;;;7.53;5.65;;;;;;;10.45;69.54;99480.92;1671320;83;21172;-41
2022/11/04 10:23:37;;;;;;;6.50;5.45;;;;;;;10.55;69.47;99480.92;1729849;82;21104;-41
2022/11/04 10:26:32;;;;;;;6.97;5.60;;;;;;;10.65;69.99;99483.05;1757589;81;20998;-41
2022/11/04 10:29:05;;;;;;;10.32;6.25;;;;;;;10.78;69.46;99485.85;1793469;78;20950;-41
2022/11/04 10:31:33;;;;;;;13.08;9.38;;;;;;;10.76;69.18;99479.98;1792233;78;20977;-42
2022/11/04 10:34:07;;;;;;;12.18;7.20;;;;;;;10.75;69.10;99472.20;1762479;79;21089;-41
2022/11/04 10:36:35;;;;;;;8.95;6.25;;;;;;;10.72;68.98;99472.92;1769296;79;20973;-41
2022/11/04 10:39:06;;;;;;;13.22;6.05;;;;;;;10.68;68.96;99474.22;1765591;79;21110;-41
2022/11/04 10:41:36;;;;;;;8.80;6.30;;;;;;;10.72;68.89;99464.22;1777992;79;20978;-41
2022/11/04 10:44:17;;;;;;;7.80;6.12;;;;;;;10.78;68.76;99470.15;1785842;79;20954;-41
2022/11/04 10:47:32;;;;;;;9.08;6.20;;;;;;;10.76;68.81;99470.49;1795070;79;21020;-40
2022/11/04 10:50:36;;;;;;;13.62;7.10;;;;;;;10.75;69.06;99463.50;1779608;79;21332;-44
2022/11/04 10:53:17;;;;;;;11.08;7.12;;;;;;;10.76;69.37;99465.07;1767431;79;21196;-42
2022/11/04 10:56:08;;;;;;;8.95;6.47;;;;;;;10.83;69.31;99457.09;1777167;79;21577;-42
2022/11/04 10:58:45;;;;;;;8.70;6.25;;;;;;;10.90;69.36;99461.27;1776006;79;20950;-42
2022/11/04 11:01:31;;;;;;;10.70;6.62;;;;;;;11.05;69.00;99453.40;1786232;79;21176;-42
2022/11/04 11:03:59;;;;;;;9.05;6.90;;;;;;;11.16;68.85;99453.03;1791716;79;20970;-42
2022/11/04 11:06:30;;;;;;;10.55;7.17;;;;;;;11.13;67.84;99452.41;1786088;78;21242;-42
2022/11/04 11:09:15;;;;;;;10.80;7.08;;;;;;;10.99;68.28;99455.62;1795996;78;21011;-42
2022/11/04 11:11:49;;;;;;;11.18;6.17;;;;;;;10.89;68.39;99447.49;1825130;78;20996;-42
2022/11/04 11:14:32;;;;;;;11.60;6.40;;;;;;;10.78;68.49;99444.39;1813823;78;20971;-42
2022/11/04 11:17:27;;;;;;;8.43;5.80;;;;;;;10.66;68.75;99447.23;1801645;78;21012;-44
2022/11/04 11:20:21;;;;;;;8.33;6.03;;;;;;;10.62;69.16;99441.75;1817609;78;21940;-43
2022/11/04 11:22:53;;;;;;;7.92;6.17;;;;;;;10.67;69.47;99444.17;1792061;78;21056;-42
2022/11/04 11:25:34;;;;;;;9.05;6.50;;;;;;;10.65;68.95;99446.44;1822468;78;21513;-42
2022/11/04 11:28:06;;;;;;;9.08;5.95;;;;;;;10.56;68.75;99436.95;1744718;81;21486;-42
2022/11/04 11:30:49;;;;;;;10.00;6.28;;;;;;;10.43;68.87;99434.97;1789059;79;21024;-42
2022/11/04 11:33:30;;;;;;;6.78;5.70;;;;;;;10.37;69.27;99433.67;1733833;82;21249;-42
2022/11/04 11:36:11;;;;;;;9.40;6.05;;;;;;;10.46;69.36;99440.45;1747958;81;21023;-43
2022/11/04 11:38:36;;;;;;;13.00;6.45;;;;;;;10.51;69.56;99438.03;1764236;80;21087;-42
2022/11/04 11:41:10;;;;;;;10.80;7.15;;;;;;;10.53;69.80;99440.39;1775796;80;21334;-42
2022/11/04 11:43:43;;;;;;;13.18;7.90;;;;;;;10.50;69.80;99432.98;1776500;80;21034;-42
2022/11/04 11:46:11;;;;;;;12.73;8.33;;;;;;;10.46;69.95;99431.53;1759087;80;20986;-42
2022/11/04 11:48:43;;;;;;;14.13;8.75;;;;;;;10.43;69.90;99430.91;1785997;80;20961;-41
2022/11/04 11:51:13;;;;;;;12.35;8.08;;;;;;;10.47;69.87;99431.76;1774163;80;21063;-41
2022/11/04 11:54:02;;;;;;;12.53;8.35;;;;;;;10.43;70.12;99426.27;1771645;80;21060;-42
2022/11/04 11:56:42;;;;;;;13.20;8.03;;;;;;;10.43;70.27;99430.91;1746693;80;24859;-42
2022/11/04 11:59:26;;;;;;;13.15;8.53;;;;;;;10.38;70.25;99428.48;1751953;80;23179;-42
2022/11/04 12:02:05;;;;;;;12.65;7.30;;;;;;;10.28;70.17;99420.34;1778754;80;21246;-42
2022/11/04 12:04:34;;;;;;;10.25;7.35;;;;;;;10.25;70.48;99422.42;1764566;80;21572;-42
2022/11/04 12:07:41;;;;;;;13.62;7.90;;;;;;;10.29;70.30;99426.55;1749128;81;20911;-43
2022/11/04 12:10:19;;;;;;;11.38;8.08;;;;;;;10.29;70.22;99419.77;1752664;81;21002;-41
2022/11/04 12:13:30;;;;;;;10.82;8.45;;;;;;;10.24;70.50;99422.20;1779060;79;21136;-41
2022/11/04 12:16:20;;;;;;;13.85;8.73;;;;;;;10.24;70.46;99422.77;1748371;81;20972;-42
2022/11/04 12:19:25;;;;;;;12.80;7.97;;;;;;;10.20;70.50;99415.92;1741670;80;21038;-42
2022/11/04 12:22:19;;;;;;;15.90;8.18;;;;;;;10.20;70.58;99419.98;1755177;81;21035;-42
2022/11/04 12:25:12;;;;;;;11.22;7.75;;;;;;;10.15;70.51;99411.32;1808312;78;21424;-42
2022/11/04 12:28:03;;;;;;;14.75;8.28;;;;;;;10.12;70.72;99417.45;1780940;79;21133;-42
2022/11/04 12:30:47;;;;;;;11.80;8.00;;;;;;;10.11;70.81;99415.88;1737823;81;20969;-42